Airfield :







YOU CAN JOIN US ON...

 
LOGIN :

Register | Disclaimer

   EN    FR    IT 

 









Legend :    VFR   Marginal VFR   IFR   Intensive IFR   Very Intensive IFR
Visi :
Ceiling :
>= 8 km
>= 3000ft
5 to 8 km
1000 to 3000 ft
1500m to 5 km
500 to 1000 ft
800 to 1500m
200 to 500 ft
< 800m
< 200 ft
Symbols :   Thunderstorms  Fog  Heavy snow  Heavy precipitations  Wind > 20 kt







- Airport Elevation : 167 ft
- IATA code : YAW


CYAW - CFB Shearwater

CURRENT METAR :
  • 160200Z 27010KT 15SM FEW120 16/13 A2994 RMK AC1 DA510FT SLP139

EXPIRED METARs :
  • 160100Z 29007KT 15SM FEW052 FEW100 FEW250 17/12 A2994 RMK SC1AC1CI1 DA566FT SLP139
  • 160000Z 26004KT 15SM FEW080 FEW250 17/15 A2994 RMK AC1CI2 DA633FT SLP139

TAF TAF CYAW
Valid from the 16 at 00:00 until the 16 at 06:00 UTC


152330Z 1600/1606 23005KT P6SM FEW040 BKN240
BECMG 1600/1602 28005KT
FM160400 28005KT P6SM BKN040 BKN120 RMK NXT FCST BY 160600Z
No reported NOTAMs for that airfield.



MET'MAP, your aeronautical weather chart ! - Copyright ORBIFLY December 2007 - Disclaimer

ORBIFLY MET'MAP TEAM :

Programming & Development : Alexandra Zaïnal
Concept & Development : Baudouin d'Aumeries
Co-Development & Prog : Marc-Olivier Méhu
Technical & hardware support : Manuel Goepfert

Contact : metmap@orbifly.com




SOURCES & CREDITS :

   NOAA